createdAt,value
2023-12-05T00:00:03.857Z,15.98
2023-12-05T00:03:14.845Z,16.65
2023-12-05T00:06:16.838Z,16.17
2023-12-05T00:09:18.816Z,17.08
2023-12-05T00:12:20.828Z,15.93
2023-12-05T00:15:23.332Z,16.80
2023-12-05T00:18:26.289Z,18.60
2023-12-05T00:21:28.261Z,20.52
2023-12-05T00:24:30.712Z,20.77
2023-12-05T00:27:33.052Z,21.05
2023-12-05T00:30:34.986Z,21.10
2023-12-05T00:33:37.092Z,20.88
2023-12-05T00:36:39.310Z,21.67
2023-12-05T00:39:42.401Z,21.67
2023-12-05T00:42:45.434Z,23.02
2023-12-05T00:45:47.446Z,23.83
2023-12-05T00:48:49.813Z,22.65
2023-12-05T00:51:51.953Z,21.15
2023-12-05T00:54:54.001Z,22.13
2023-12-05T00:57:56.446Z,23.27
2023-12-05T01:00:59.128Z,24.35
2023-12-05T01:04:01.548Z,22.77
2023-12-05T01:07:04.220Z,20.25
2023-12-05T01:10:06.886Z,20.58
2023-12-05T01:13:08.957Z,20.33
2023-12-05T01:16:12.118Z,21.15
2023-12-05T01:19:14.141Z,21.55
2023-12-05T01:22:16.141Z,21.98
2023-12-05T01:25:18.378Z,23.85
2023-12-05T01:28:20.262Z,24.42
2023-12-05T01:31:22.693Z,26.73
2023-12-05T01:34:24.840Z,27.33
2023-12-05T01:37:26.789Z,25.70
2023-12-05T01:40:28.822Z,25.33
2023-12-05T01:43:31.291Z,23.50
2023-12-05T01:46:33.676Z,21.38
2023-12-05T01:49:37.072Z,20.60
2023-12-05T01:52:47.949Z,18.58
2023-12-05T01:55:51.020Z,19.83
2023-12-05T01:58:53.018Z,17.67
2023-12-05T02:01:55.744Z,18.10
2023-12-05T02:04:58.311Z,18.70
2023-12-05T02:08:01.317Z,18.45
2023-12-05T02:11:03.567Z,18.52
2023-12-05T02:14:08.360Z,18.40
2023-12-05T02:17:25.685Z,17.08
2023-12-05T02:20:37.001Z,17.75
2023-12-05T02:24:03.691Z,16.70
2023-12-05T02:27:39.438Z,16.52
2023-12-05T02:30:41.966Z,17.10
2023-12-05T02:33:44.007Z,17.73
2023-12-05T02:36:57.015Z,17.27
2023-12-05T02:40:05.603Z,16.23
2023-12-05T02:43:17.391Z,16.42
2023-12-05T02:46:21.019Z,17.45
2023-12-05T02:49:23.619Z,19.23
2023-12-05T02:52:25.631Z,18.00
2023-12-05T02:55:27.526Z,17.58
2023-12-05T02:58:30.279Z,18.73
2023-12-05T03:01:39.598Z,18.50
2023-12-05T03:04:41.652Z,16.85
2023-12-05T03:07:43.692Z,17.63
2023-12-05T03:10:54.742Z,15.82
2023-12-05T03:14:03.983Z,15.02
2023-12-05T03:17:06.042Z,16.50
2023-12-05T03:20:08.698Z,15.07
2023-12-05T03:23:10.884Z,14.35
2023-12-05T03:26:20.608Z,14.57
2023-12-05T03:29:22.519Z,13.05
2023-12-05T03:32:24.632Z,12.35
2023-12-05T03:35:26.616Z,12.05
2023-12-05T03:38:28.525Z,12.27
2023-12-05T03:41:30.549Z,11.98
2023-12-05T03:44:32.522Z,12.52
2023-12-05T03:47:34.560Z,13.15
2023-12-05T03:50:36.636Z,12.77
2023-12-05T03:53:38.580Z,11.93
2023-12-05T03:56:40.506Z,11.98
2023-12-05T03:59:42.560Z,11.75
2023-12-05T04:02:46.305Z,11.63
2023-12-05T04:05:48.329Z,12.38
2023-12-05T04:08:51.288Z,12.27
2023-12-05T04:11:53.354Z,11.95
2023-12-05T04:14:55.705Z,11.48
2023-12-05T04:17:57.872Z,10.75
2023-12-05T04:20:59.988Z,11.63
2023-12-05T04:24:01.949Z,9.88
2023-12-05T04:27:04.913Z,11.30
2023-12-05T04:30:08.083Z,11.35
2023-12-05T04:33:10.227Z,11.63
2023-12-05T04:36:12.762Z,12.50
2023-12-05T04:39:14.828Z,10.32
2023-12-05T04:42:16.858Z,11.98
2023-12-05T04:45:18.812Z,11.60
2023-12-05T04:48:20.887Z,11.40
2023-12-05T04:51:22.873Z,13.07
2023-12-05T04:54:24.972Z,14.02
2023-12-05T04:57:29.615Z,14.20
2023-12-05T05:00:32.910Z,12.98
2023-12-05T05:03:34.940Z,13.32
2023-12-05T05:06:37.055Z,12.60
2023-12-05T05:09:42.058Z,12.32
2023-12-05T05:12:44.054Z,12.18
2023-12-05T05:15:46.185Z,11.75
2023-12-05T05:18:49.151Z,12.38
2023-12-05T05:21:51.315Z,12.05
2023-12-05T05:24:53.422Z,11.93
2023-12-05T05:27:55.581Z,11.27
2023-12-05T05:30:58.870Z,11.25
2023-12-05T05:34:01.088Z,12.57
2023-12-05T05:37:03.632Z,11.23
2023-12-05T05:40:08.016Z,11.82
2023-12-05T05:43:10.673Z,12.27
2023-12-05T05:46:13.082Z,9.82
2023-12-05T05:49:15.156Z,9.48
2023-12-05T05:52:17.168Z,9.40
2023-12-05T05:55:26.119Z,9.77
2023-12-05T05:58:29.249Z,8.63
2023-12-05T06:01:31.435Z,7.97
2023-12-05T06:04:33.477Z,7.85
2023-12-05T06:07:35.686Z,8.27
2023-12-05T06:10:37.664Z,8.45
2023-12-05T06:13:39.671Z,7.95
2023-12-05T06:16:41.685Z,7.80
2023-12-05T06:19:43.790Z,7.03
2023-12-05T06:22:45.817Z,7.70
2023-12-05T06:25:47.754Z,6.90
2023-12-05T06:28:49.745Z,6.97
2023-12-05T06:31:51.670Z,7.32
2023-12-05T06:34:53.627Z,7.10
2023-12-05T06:37:55.680Z,7.78
2023-12-05T06:40:57.689Z,8.18
2023-12-05T06:43:59.600Z,8.60
2023-12-05T06:47:01.548Z,8.98
2023-12-05T06:50:12.414Z,9.45
2023-12-05T06:53:14.961Z,9.02
2023-12-05T06:56:17.612Z,10.10
2023-12-05T06:59:20.743Z,9.13
2023-12-05T07:02:22.676Z,9.90
2023-12-05T07:05:24.794Z,10.18
2023-12-05T07:08:28.044Z,9.32
2023-12-05T07:11:29.961Z,9.20
2023-12-05T07:14:35.917Z,9.10
2023-12-05T07:17:38.987Z,8.70
2023-12-05T07:20:41.139Z,8.15
2023-12-05T07:23:46.671Z,7.78
2023-12-05T07:26:51.886Z,8.48
2023-12-05T07:29:53.845Z,6.75
2023-12-05T07:32:55.936Z,7.45
2023-12-05T07:35:59.024Z,7.18
2023-12-05T07:39:00.977Z,7.65
2023-12-05T07:42:02.983Z,7.13
2023-12-05T07:45:06.762Z,7.28
2023-12-05T07:48:08.728Z,7.80
2023-12-05T07:51:15.817Z,7.75
2023-12-05T07:54:18.210Z,7.65
2023-12-05T07:57:23.681Z,7.65
2023-12-05T08:00:25.761Z,7.80
2023-12-05T08:03:27.865Z,7.53
2023-12-05T08:06:30.032Z,9.05
2023-12-05T08:09:32.288Z,11.88
2023-12-05T08:12:35.248Z,12.93
2023-12-05T08:15:37.341Z,14.40
2023-12-05T08:18:39.332Z,13.45
2023-12-05T08:21:41.306Z,12.02
2023-12-05T08:24:43.313Z,11.82
2023-12-05T08:27:45.331Z,11.80
2023-12-05T08:30:47.240Z,10.38
2023-12-05T08:33:49.863Z,9.65
2023-12-05T08:36:52.111Z,7.32
2023-12-05T08:39:54.124Z,7.65
2023-12-05T08:42:56.099Z,7.00
2023-12-05T08:45:58.117Z,7.63
2023-12-05T08:49:00.169Z,7.60
2023-12-05T08:52:02.253Z,8.10
2023-12-05T08:55:05.730Z,7.78
2023-12-05T08:58:07.991Z,7.90
2023-12-05T09:01:13.165Z,8.38
2023-12-05T09:04:15.456Z,8.50
2023-12-05T09:07:17.615Z,8.57
2023-12-05T09:10:20.351Z,8.82
2023-12-05T09:13:22.505Z,8.68
2023-12-05T09:16:24.480Z,8.07
2023-12-05T09:19:26.409Z,8.85
2023-12-05T09:22:29.423Z,9.10
2023-12-05T09:25:31.326Z,9.68
2023-12-05T09:28:33.792Z,9.48
2023-12-05T09:31:36.360Z,9.63
2023-12-05T09:34:38.517Z,9.23
2023-12-05T09:37:40.494Z,8.65
2023-12-05T09:40:42.445Z,9.00
2023-12-05T09:43:46.082Z,9.82
2023-12-05T09:46:52.208Z,9.57
2023-12-05T09:49:56.607Z,10.90
2023-12-05T09:53:00.812Z,11.30
2023-12-05T09:56:03.261Z,11.50
2023-12-05T09:59:05.159Z,11.65
2023-12-05T10:02:09.557Z,11.88
2023-12-05T10:05:17.290Z,12.40
2023-12-05T10:08:21.852Z,11.55
2023-12-05T10:11:28.381Z,12.45
2023-12-05T10:14:30.452Z,11.75
2023-12-05T10:17:34.550Z,10.95
2023-12-05T10:20:39.773Z,9.43
2023-12-05T10:23:41.951Z,9.38
2023-12-05T10:26:48.316Z,8.40
2023-12-05T10:29:50.314Z,8.45
2023-12-05T10:32:52.276Z,7.85
2023-12-05T10:35:54.496Z,7.97
2023-12-05T10:38:56.695Z,7.53
2023-12-05T10:41:58.619Z,7.50
2023-12-05T10:45:06.364Z,7.97
2023-12-05T10:48:08.829Z,8.20
2023-12-05T10:51:10.940Z,7.90
2023-12-05T10:54:14.313Z,8.65
2023-12-05T10:57:16.279Z,9.68
2023-12-05T11:00:20.006Z,9.50
2023-12-05T11:03:23.557Z,9.13
2023-12-05T11:06:27.436Z,9.40
2023-12-05T11:09:29.463Z,9.13
2023-12-05T11:12:32.269Z,9.10
2023-12-05T11:15:40.069Z,8.88
2023-12-05T11:18:45.187Z,8.68
2023-12-05T11:22:12.000Z,9.18
2023-12-05T11:25:25.507Z,9.40
2023-12-05T11:28:27.464Z,9.05
2023-12-05T11:31:38.522Z,9.50
2023-12-05T11:35:00.379Z,9.93
2023-12-05T11:38:13.782Z,9.10
2023-12-05T11:41:22.295Z,9.40
2023-12-05T11:44:24.397Z,9.23
2023-12-05T11:47:29.786Z,9.63
2023-12-05T11:50:49.998Z,9.38
2023-12-05T11:53:51.935Z,9.52
2023-12-05T11:57:11.725Z,8.43
2023-12-05T12:00:14.416Z,9.20
2023-12-05T12:03:16.497Z,10.57
2023-12-05T12:06:20.558Z,10.02
2023-12-05T12:09:23.282Z,11.45
2023-12-05T12:12:25.810Z,11.00
2023-12-05T12:15:37.314Z,10.98
2023-12-05T12:18:44.136Z,10.30
2023-12-05T12:21:53.279Z,10.48
2023-12-05T12:25:06.406Z,10.93
2023-12-05T12:28:08.302Z,10.85
2023-12-05T12:31:25.960Z,10.82
2023-12-05T12:34:28.746Z,11.13
2023-12-05T12:37:37.699Z,11.15
2023-12-05T12:40:44.975Z,10.20
2023-12-05T12:43:47.815Z,10.73
2023-12-05T12:46:49.714Z,11.32
2023-12-05T12:49:52.301Z,11.18
2023-12-05T12:52:55.980Z,11.25
2023-12-05T12:55:58.098Z,10.73
2023-12-05T12:59:04.306Z,11.35
2023-12-05T13:02:07.679Z,10.63
2023-12-05T13:05:09.915Z,10.93
2023-12-05T13:08:14.648Z,10.05
2023-12-05T13:11:18.156Z,10.68
2023-12-05T13:14:20.911Z,10.38
2023-12-05T13:17:23.194Z,11.48
2023-12-05T13:20:25.396Z,10.63
2023-12-05T13:23:27.413Z,11.27
2023-12-05T13:26:29.472Z,12.77
2023-12-05T13:29:31.627Z,11.98
2023-12-05T13:32:33.626Z,11.93
2023-12-05T13:35:35.624Z,12.57
2023-12-05T13:38:41.248Z,11.68
2023-12-05T13:41:43.783Z,12.73
2023-12-05T13:44:46.314Z,12.55
2023-12-05T13:47:48.414Z,12.35
2023-12-05T13:50:50.430Z,13.93
2023-12-05T13:53:52.464Z,13.80
2023-12-05T13:56:54.964Z,14.00
2023-12-05T13:59:56.931Z,14.02
2023-12-05T14:02:58.920Z,13.55
2023-12-05T14:06:01.309Z,13.55
2023-12-05T14:09:03.995Z,13.70
2023-12-05T14:12:12.714Z,13.68
2023-12-05T14:15:14.960Z,13.50
2023-12-05T14:18:17.004Z,13.60
2023-12-05T14:21:19.091Z,13.30
2023-12-05T14:24:20.963Z,14.55
2023-12-05T14:27:25.792Z,13.70
2023-12-05T14:30:28.116Z,15.52
2023-12-05T14:33:30.246Z,14.60
2023-12-05T14:36:32.344Z,14.30
2023-12-05T14:39:34.278Z,15.68
2023-12-05T14:42:38.877Z,15.57
2023-12-05T14:45:41.206Z,15.25
2023-12-05T14:48:43.236Z,15.77
2023-12-05T14:51:45.175Z,15.55
2023-12-05T14:54:47.261Z,15.38
2023-12-05T14:57:50.140Z,16.67
2023-12-05T15:00:55.145Z,16.88
2023-12-05T15:03:57.622Z,16.95
2023-12-05T15:07:00.099Z,16.92
2023-12-05T15:10:02.631Z,17.95
2023-12-05T15:13:04.713Z,15.50
2023-12-05T15:16:06.986Z,15.90
2023-12-05T15:19:10.551Z,14.55
2023-12-05T15:22:12.624Z,13.60
2023-12-05T15:25:14.847Z,14.63
2023-12-05T15:28:18.142Z,13.63
2023-12-05T15:31:20.267Z,15.68
2023-12-05T15:34:22.544Z,15.32
2023-12-05T15:37:24.687Z,14.15
2023-12-05T15:40:27.117Z,14.60
2023-12-05T15:43:29.008Z,14.52
2023-12-05T15:46:31.006Z,14.40
2023-12-05T15:49:33.926Z,13.32
2023-12-05T15:52:36.935Z,14.23
2023-12-05T15:55:38.989Z,13.93
2023-12-05T15:58:42.544Z,14.32
2023-12-05T16:01:47.380Z,14.02
2023-12-05T16:04:50.047Z,14.48
2023-12-05T16:07:52.040Z,15.32
2023-12-05T16:10:54.029Z,15.10
2023-12-05T16:13:56.181Z,15.60
2023-12-05T16:16:58.607Z,15.57
2023-12-05T16:20:00.710Z,15.07
2023-12-05T16:23:02.678Z,15.80
2023-12-05T16:26:05.127Z,15.60
2023-12-05T16:29:07.224Z,15.38
2023-12-05T16:32:09.199Z,16.27
2023-12-05T16:35:12.044Z,14.55
2023-12-05T16:38:13.996Z,14.43
2023-12-05T16:41:16.421Z,14.82
2023-12-05T16:44:18.307Z,14.45
2023-12-05T16:47:21.109Z,14.50
2023-12-05T16:50:23.304Z,13.32
2023-12-05T16:53:25.334Z,15.07
2023-12-05T16:56:27.422Z,15.02
2023-12-05T16:59:33.983Z,15.20
2023-12-05T17:02:37.315Z,14.32
2023-12-05T17:05:41.042Z,14.27
2023-12-05T17:08:43.034Z,15.48
2023-12-05T17:11:45.671Z,14.93
2023-12-05T17:14:47.758Z,16.52
2023-12-05T17:17:49.736Z,14.73
2023-12-05T17:20:51.746Z,15.60
2023-12-05T17:23:55.745Z,14.77
2023-12-05T17:26:57.803Z,15.20
2023-12-05T17:29:59.778Z,15.35
2023-12-05T17:33:01.863Z,15.48
2023-12-05T17:36:04.072Z,15.20
2023-12-05T17:39:06.032Z,15.27
2023-12-05T17:42:07.947Z,14.93
2023-12-05T17:45:10.279Z,15.48
2023-12-05T17:48:12.377Z,15.55
2023-12-05T17:51:14.488Z,16.02
2023-12-05T17:54:17.518Z,16.90
2023-12-05T17:57:23.128Z,16.30
2023-12-05T18:00:25.104Z,17.77
2023-12-05T18:03:27.555Z,17.95
2023-12-05T18:06:29.795Z,17.30
2023-12-05T18:09:31.830Z,15.90
2023-12-05T18:12:34.538Z,17.17
2023-12-05T18:15:36.657Z,16.58
2023-12-05T18:18:38.815Z,17.33
2023-12-05T18:21:40.976Z,16.90
2023-12-05T18:24:43.115Z,15.73
2023-12-05T18:27:45.872Z,16.23
2023-12-05T18:30:47.983Z,16.35
2023-12-05T18:33:51.318Z,16.88
2023-12-05T18:36:58.157Z,16.45
2023-12-05T18:40:00.668Z,16.90
2023-12-05T18:43:02.687Z,18.50
2023-12-05T18:46:05.706Z,17.98
2023-12-05T18:49:08.292Z,18.70
2023-12-05T18:52:10.384Z,18.60
2023-12-05T18:55:12.757Z,18.48
2023-12-05T18:58:14.675Z,19.35
2023-12-05T19:01:16.908Z,21.27
2023-12-05T19:04:19.269Z,20.90
2023-12-05T19:07:21.534Z,20.33
2023-12-05T19:10:24.000Z,19.65
2023-12-05T19:13:25.999Z,21.27
2023-12-05T19:16:27.961Z,20.35
2023-12-05T19:19:30.015Z,21.33
2023-12-05T19:22:31.981Z,23.75
2023-12-05T19:25:34.151Z,21.77
2023-12-05T19:28:46.209Z,22.67
2023-12-05T19:31:53.545Z,22.33
2023-12-05T19:34:55.640Z,25.50
2023-12-05T19:37:57.683Z,26.27
2023-12-05T19:40:59.671Z,26.52
2023-12-05T19:44:01.691Z,25.33
2023-12-05T19:47:03.965Z,26.70
2023-12-05T19:50:06.789Z,24.38
2023-12-05T19:53:08.781Z,23.98
2023-12-05T19:56:12.841Z,22.92
2023-12-05T19:59:15.065Z,22.25
2023-12-05T20:02:17.104Z,23.13
2023-12-05T20:05:19.159Z,21.45
2023-12-05T20:08:21.768Z,22.38
2023-12-05T20:11:23.822Z,22.95
2023-12-05T20:14:25.838Z,21.65
2023-12-05T20:17:29.513Z,23.23
2023-12-05T20:20:31.766Z,21.90
2023-12-05T20:23:34.945Z,20.85
2023-12-05T20:26:36.892Z,20.55
2023-12-05T20:29:38.892Z,19.52
2023-12-05T20:32:40.841Z,20.25
2023-12-05T20:35:42.840Z,19.00
2023-12-05T20:38:45.747Z,17.10
2023-12-05T20:41:47.888Z,17.23
2023-12-05T20:44:51.708Z,17.73
2023-12-05T20:47:53.735Z,16.83
2023-12-05T20:50:55.760Z,19.48
2023-12-05T20:53:57.687Z,17.85
2023-12-05T20:56:59.705Z,17.83
2023-12-05T21:00:02.297Z,17.10
2023-12-05T21:03:04.934Z,18.10
2023-12-05T21:06:08.771Z,17.73
2023-12-05T21:09:13.481Z,18.63
2023-12-05T21:12:15.883Z,18.27
2023-12-05T21:15:18.172Z,16.92
2023-12-05T21:18:20.443Z,15.98
2023-12-05T21:21:22.737Z,16.48
2023-12-05T21:24:24.801Z,16.73
2023-12-05T21:27:26.788Z,16.58
2023-12-05T21:30:28.665Z,16.35
2023-12-05T21:33:30.822Z,17.35
2023-12-05T21:36:33.239Z,16.48
2023-12-05T21:39:35.343Z,16.55
2023-12-05T21:42:37.330Z,15.90
2023-12-05T21:45:39.549Z,14.80
2023-12-05T21:48:41.595Z,15.07
2023-12-05T21:51:43.835Z,14.80
2023-12-05T21:54:45.836Z,15.85
2023-12-05T21:57:47.895Z,15.48
2023-12-05T22:00:49.978Z,15.95
2023-12-05T22:03:51.979Z,15.82
2023-12-05T22:06:53.967Z,14.95
2023-12-05T22:09:56.003Z,15.60
2023-12-05T22:12:58.070Z,15.05
2023-12-05T22:16:01.170Z,15.63
2023-12-05T22:19:03.393Z,15.95
2023-12-05T22:22:05.536Z,16.38
2023-12-05T22:25:07.944Z,16.35
2023-12-05T22:28:09.972Z,16.13
2023-12-05T22:31:14.795Z,16.10
2023-12-05T22:34:18.370Z,15.60
2023-12-05T22:37:21.265Z,15.90
2023-12-05T22:40:23.380Z,16.33
2023-12-05T22:43:46.805Z,17.38
2023-12-05T22:46:52.104Z,17.83
2023-12-05T22:49:54.103Z,18.70
2023-12-05T22:52:56.109Z,17.67
2023-12-05T22:55:57.987Z,17.45
2023-12-05T22:58:59.991Z,17.25
2023-12-05T23:02:01.921Z,16.92
2023-12-05T23:05:04.708Z,17.13
2023-12-05T23:08:06.667Z,18.30
2023-12-05T23:11:08.651Z,16.58
2023-12-05T23:14:10.872Z,16.63
2023-12-05T23:17:13.233Z,16.98
2023-12-05T23:20:15.542Z,17.27
2023-12-05T23:23:17.487Z,17.85
2023-12-05T23:26:19.995Z,18.45
2023-12-05T23:29:21.952Z,16.75
2023-12-05T23:32:23.923Z,17.35
2023-12-05T23:35:25.837Z,17.33
2023-12-05T23:38:27.813Z,18.25
2023-12-05T23:41:29.789Z,17.08
2023-12-05T23:44:31.783Z,16.67
2023-12-05T23:47:33.766Z,17.05
2023-12-05T23:50:35.774Z,17.02
2023-12-05T23:53:37.709Z,15.77
2023-12-05T23:56:39.919Z,16.10
2023-12-05T23:59:41.925Z,16.23
